createdAt,value
2018-04-29T00:00:37.224Z,987.78
2018-04-29T00:01:37.228Z,987.77
2018-04-29T00:02:37.212Z,987.77
2018-04-29T00:03:37.207Z,987.81
2018-04-29T00:04:37.208Z,987.80
2018-04-29T00:05:37.239Z,987.75
2018-04-29T00:06:37.188Z,987.74
2018-04-29T00:07:37.184Z,987.69
2018-04-29T00:08:37.178Z,987.68
2018-04-29T00:09:37.171Z,987.70
2018-04-29T00:10:37.165Z,987.70
2018-04-29T00:11:37.159Z,987.69
2018-04-29T00:12:37.160Z,987.67
2018-04-29T00:13:37.148Z,987.66
2018-04-29T00:14:37.141Z,987.61
2018-04-29T00:15:37.136Z,987.62
2018-04-29T00:16:37.130Z,987.59
2018-04-29T00:17:37.130Z,987.52
2018-04-29T00:18:37.118Z,987.55
2018-04-29T00:19:37.124Z,987.60
2018-04-29T00:20:37.125Z,987.57
2018-04-29T00:21:37.101Z,987.59
2018-04-29T00:22:37.095Z,987.57
2018-04-29T00:23:37.091Z,987.52
2018-04-29T00:24:37.083Z,987.54
2018-04-29T00:25:37.077Z,987.53
2018-04-29T00:26:37.073Z,987.53
2018-04-29T00:27:37.066Z,987.49
2018-04-29T00:28:37.072Z,987.51
2018-04-29T00:29:37.056Z,987.47
2018-04-29T00:30:37.053Z,987.51
2018-04-29T00:31:37.042Z,987.53
2018-04-29T00:32:37.038Z,987.55
2018-04-29T00:33:37.027Z,987.53
2018-04-29T00:34:37.025Z,987.56
2018-04-29T00:35:37.020Z,987.54
2018-04-29T00:36:37.016Z,987.53
2018-04-29T00:37:37.004Z,987.48
2018-04-29T00:38:37.019Z,987.45
2018-04-29T00:39:36.996Z,987.45
2018-04-29T00:40:36.991Z,987.42
2018-04-29T00:41:36.983Z,987.43
2018-04-29T00:42:36.989Z,987.41
2018-04-29T00:43:36.969Z,987.39
2018-04-29T00:44:36.965Z,987.35
2018-04-29T00:45:36.959Z,987.36
2018-04-29T00:46:36.961Z,987.36
2018-04-29T00:47:36.949Z,987.35
2018-04-29T00:48:36.948Z,987.35
2018-04-29T00:49:36.936Z,987.34
2018-04-29T00:50:36.932Z,987.32
2018-04-29T00:51:36.923Z,987.30
2018-04-29T00:52:36.923Z,987.29
2018-04-29T00:53:36.921Z,987.30
2018-04-29T00:54:36.909Z,987.37
2018-04-29T00:55:36.901Z,987.37
2018-04-29T00:56:36.894Z,987.38
2018-04-29T00:57:36.892Z,987.34
2018-04-29T00:58:36.886Z,987.36
2018-04-29T00:59:36.873Z,987.34
2018-04-29T01:00:36.872Z,987.32
2018-04-29T01:01:36.876Z,987.30
2018-04-29T01:02:36.861Z,987.33
2018-04-29T01:03:36.853Z,987.35
2018-04-29T01:04:36.852Z,987.32
2018-04-29T01:05:36.849Z,987.36
2018-04-29T01:06:36.836Z,987.31
2018-04-29T01:07:36.832Z,987.25
2018-04-29T01:08:36.833Z,987.28
2018-04-29T01:09:36.821Z,987.25
2018-04-29T01:10:36.816Z,987.28
2018-04-29T01:11:36.810Z,987.30
2018-04-29T01:12:36.806Z,987.30
2018-04-29T01:13:36.803Z,987.26
2018-04-29T01:14:36.792Z,987.26
2018-04-29T01:15:36.782Z,987.26
2018-04-29T01:16:36.789Z,987.26
2018-04-29T01:17:36.777Z,987.24
2018-04-29T01:18:36.769Z,987.21
2018-04-29T01:19:36.766Z,987.17
2018-04-29T01:20:36.760Z,987.13
2018-04-29T01:21:36.746Z,987.14
2018-04-29T01:22:36.747Z,987.09
2018-04-29T01:23:36.737Z,987.11
2018-04-29T01:24:36.739Z,987.12
2018-04-29T01:25:36.730Z,987.10
2018-04-29T01:26:36.730Z,987.09
2018-04-29T01:27:36.716Z,987.10
2018-04-29T01:28:36.710Z,987.11
2018-04-29T01:29:36.704Z,987.06
2018-04-29T01:30:36.699Z,987.09
2018-04-29T01:31:36.692Z,987.07
2018-04-29T01:32:36.688Z,987.07
2018-04-29T01:33:36.687Z,987.05
2018-04-29T01:34:36.682Z,987.05
2018-04-29T01:35:36.671Z,987.05
2018-04-29T01:36:36.663Z,987.05
2018-04-29T01:37:36.663Z,987.04
2018-04-29T01:38:36.649Z,987.07
2018-04-29T01:39:36.653Z,987.14
2018-04-29T01:40:36.642Z,987.17
2018-04-29T01:41:36.639Z,987.21
2018-04-29T01:42:36.633Z,987.25
2018-04-29T01:43:36.623Z,987.28
2018-04-29T01:44:36.621Z,987.29
2018-04-29T01:45:36.614Z,987.31
2018-04-29T01:46:36.606Z,987.29
2018-04-29T01:47:36.603Z,987.33
2018-04-29T01:48:36.596Z,987.32
2018-04-29T01:49:36.592Z,987.28
2018-04-29T01:50:36.585Z,987.27
2018-04-29T01:51:36.655Z,987.23
2018-04-29T01:52:36.575Z,987.21
2018-04-29T01:53:36.569Z,987.13
2018-04-29T01:54:36.565Z,987.16
2018-04-29T01:55:36.562Z,987.19
2018-04-29T01:56:36.544Z,987.14
2018-04-29T01:57:36.546Z,987.10
2018-04-29T01:58:36.541Z,987.09
2018-04-29T01:59:36.538Z,987.09
2018-04-29T02:00:36.528Z,987.09
2018-04-29T02:01:36.523Z,987.06
2018-04-29T02:02:36.516Z,987.10
2018-04-29T02:03:36.507Z,987.09
2018-04-29T02:04:36.503Z,987.08
2018-04-29T02:05:36.498Z,987.09
2018-04-29T02:06:36.499Z,987.06
2018-04-29T02:07:36.492Z,987.04
2018-04-29T02:08:36.480Z,987.01
2018-04-29T02:09:36.483Z,987.07
2018-04-29T02:10:36.472Z,987.00
2018-04-29T02:11:36.465Z,987.01
2018-04-29T02:12:36.457Z,986.97
2018-04-29T02:13:36.449Z,986.98
2018-04-29T02:14:36.468Z,986.93
2018-04-29T02:15:36.443Z,986.91
2018-04-29T02:16:36.452Z,986.85
2018-04-29T02:17:36.431Z,986.79
2018-04-29T02:18:36.428Z,986.80
2018-04-29T02:19:36.421Z,986.77
2018-04-29T02:20:36.415Z,986.76
2018-04-29T02:21:36.409Z,986.77
2018-04-29T02:22:36.403Z,986.72
2018-04-29T02:23:36.398Z,986.72
2018-04-29T02:24:36.396Z,986.69
2018-04-29T02:25:36.411Z,986.66
2018-04-29T02:26:36.380Z,986.63
2018-04-29T02:27:36.400Z,986.62
2018-04-29T02:28:36.376Z,986.62
2018-04-29T02:29:36.374Z,986.62
2018-04-29T02:30:36.356Z,986.59
2018-04-29T02:31:36.357Z,986.57
2018-04-29T02:32:36.356Z,986.63
2018-04-29T02:33:36.341Z,986.60
2018-04-29T02:34:36.335Z,986.58
2018-04-29T02:35:36.329Z,986.56
2018-04-29T02:36:36.321Z,986.60
2018-04-29T02:37:36.318Z,986.58
2018-04-29T02:38:36.312Z,986.55
2018-04-29T02:39:36.312Z,986.53
2018-04-29T02:40:36.300Z,986.50
2018-04-29T02:41:36.299Z,986.43
2018-04-29T02:42:36.289Z,986.44
2018-04-29T02:43:36.283Z,986.43
2018-04-29T02:44:36.275Z,986.38
2018-04-29T02:45:36.272Z,986.38
2018-04-29T02:46:36.271Z,986.40
2018-04-29T02:47:36.260Z,986.38
2018-04-29T02:48:36.255Z,986.32
2018-04-29T02:49:36.250Z,986.33
2018-04-29T02:50:36.243Z,986.32
2018-04-29T02:51:36.242Z,986.25
2018-04-29T02:52:36.231Z,986.24
2018-04-29T02:53:36.233Z,986.22
2018-04-29T02:54:36.221Z,986.21
2018-04-29T02:55:36.223Z,986.20
2018-04-29T02:56:36.210Z,986.20
2018-04-29T02:57:36.204Z,986.13
2018-04-29T02:58:36.197Z,986.09
2018-04-29T02:59:36.190Z,986.05
2018-04-29T03:00:36.189Z,986.04
2018-04-29T03:01:36.181Z,986.06
2018-04-29T03:02:36.173Z,986.01
2018-04-29T03:03:36.180Z,985.94
2018-04-29T03:04:36.161Z,985.92
2018-04-29T03:05:36.157Z,985.88
2018-04-29T03:06:36.155Z,985.81
2018-04-29T03:07:36.145Z,985.79
2018-04-29T03:08:36.139Z,985.76
2018-04-29T03:09:36.136Z,985.75
2018-04-29T03:10:36.134Z,985.78
2018-04-29T03:11:36.122Z,985.76
2018-04-29T03:12:36.116Z,985.79
2018-04-29T03:13:36.113Z,985.75
2018-04-29T03:14:36.109Z,985.76
2018-04-29T03:15:36.100Z,985.71
2018-04-29T03:16:36.092Z,985.69
2018-04-29T03:17:36.082Z,985.71
2018-04-29T03:18:36.084Z,985.80
2018-04-29T03:19:36.080Z,985.79
2018-04-29T03:20:36.066Z,985.84
2018-04-29T03:21:36.064Z,985.84
2018-04-29T03:22:36.064Z,985.89
2018-04-29T03:23:36.052Z,985.92
2018-04-29T03:24:36.051Z,985.88
2018-04-29T03:25:36.043Z,985.87
2018-04-29T03:26:36.037Z,985.88
2018-04-29T03:27:36.029Z,985.87
2018-04-29T03:28:36.027Z,985.88
2018-04-29T03:29:36.028Z,985.84
2018-04-29T03:30:36.013Z,985.81
2018-04-29T03:31:36.038Z,985.73
2018-04-29T03:32:36.001Z,985.72
2018-04-29T03:33:36.001Z,985.73
2018-04-29T03:34:35.993Z,985.71
2018-04-29T03:35:35.984Z,985.73
2018-04-29T03:36:35.976Z,985.66
2018-04-29T03:37:35.972Z,985.65
2018-04-29T03:38:35.969Z,985.61
2018-04-29T03:39:35.967Z,985.58
2018-04-29T03:40:35.954Z,985.57
2018-04-29T03:41:35.948Z,985.61
2018-04-29T03:42:35.940Z,985.67
2018-04-29T03:43:35.939Z,985.71
2018-04-29T03:44:35.931Z,985.74
2018-04-29T03:45:35.927Z,985.75
2018-04-29T03:46:35.921Z,985.76
2018-04-29T03:47:35.916Z,985.74
2018-04-29T03:48:35.910Z,985.72
2018-04-29T03:49:35.905Z,985.69
2018-04-29T03:50:35.899Z,985.66
2018-04-29T03:51:35.885Z,985.65
2018-04-29T03:52:35.888Z,985.64
2018-04-29T03:53:35.878Z,985.65
2018-04-29T03:54:35.887Z,985.67
2018-04-29T03:55:35.873Z,985.70
2018-04-29T03:56:35.870Z,985.74
2018-04-29T03:57:35.858Z,985.69
2018-04-29T03:58:35.852Z,985.70
2018-04-29T03:59:35.845Z,985.70
2018-04-29T04:00:35.843Z,985.66
2018-04-29T04:01:35.838Z,985.65
2018-04-29T04:02:35.851Z,985.64
2018-04-29T04:03:35.823Z,985.62
2018-04-29T04:04:35.824Z,985.65
2018-04-29T04:05:35.815Z,985.67
2018-04-29T04:06:35.811Z,985.66
2018-04-29T04:07:35.800Z,985.68
2018-04-29T04:08:35.791Z,985.70
2018-04-29T04:09:35.799Z,985.70
2018-04-29T04:10:35.782Z,985.68
2018-04-29T04:11:35.788Z,985.68
2018-04-29T04:12:35.775Z,985.66
2018-04-29T04:13:35.766Z,985.62
2018-04-29T04:14:35.762Z,985.62
2018-04-29T04:15:35.754Z,985.61
2018-04-29T04:16:35.748Z,985.62
2018-04-29T04:17:35.744Z,985.61
2018-04-29T04:18:35.736Z,985.58
2018-04-29T04:19:35.732Z,985.61
2018-04-29T04:20:35.726Z,985.57
2018-04-29T04:21:35.725Z,985.64
2018-04-29T04:22:35.716Z,985.64
2018-04-29T04:23:35.710Z,985.62
2018-04-29T04:24:35.706Z,985.68
2018-04-29T04:25:35.701Z,985.70
2018-04-29T04:26:35.690Z,985.65
2018-04-29T04:27:35.690Z,985.57
2018-04-29T04:28:35.679Z,985.53
2018-04-29T04:29:35.694Z,985.49
2018-04-29T04:30:35.737Z,985.44
2018-04-29T04:31:35.662Z,985.46
2018-04-29T04:32:35.705Z,985.49
2018-04-29T04:33:35.652Z,985.49
2018-04-29T04:34:35.651Z,985.48
2018-04-29T04:35:35.640Z,985.46
2018-04-29T04:36:35.637Z,985.40
2018-04-29T04:37:35.631Z,985.41
2018-04-29T04:38:35.665Z,985.41
2018-04-29T04:39:35.640Z,985.42
2018-04-29T04:40:35.610Z,985.41
2018-04-29T04:41:35.607Z,985.43
2018-04-29T04:42:35.608Z,985.42
2018-04-29T04:43:35.621Z,985.41
2018-04-29T04:44:35.599Z,985.41
2018-04-29T04:45:35.583Z,985.37
2018-04-29T04:46:35.580Z,985.43
2018-04-29T04:47:35.571Z,985.42
2018-04-29T04:48:35.567Z,985.38
2018-04-29T04:49:35.565Z,985.39
2018-04-29T04:50:35.558Z,985.39
2018-04-29T04:51:35.547Z,985.34
2018-04-29T04:52:35.548Z,985.34
2018-04-29T04:53:35.535Z,985.33
2018-04-29T04:54:35.534Z,985.31
2018-04-29T04:55:35.527Z,985.38
2018-04-29T04:56:35.520Z,985.34
2018-04-29T04:57:35.516Z,985.36
2018-04-29T04:58:35.508Z,985.39
2018-04-29T04:59:35.511Z,985.39
2018-04-29T05:00:35.509Z,985.42
2018-04-29T05:01:35.500Z,985.42
2018-04-29T05:02:35.495Z,985.45
2018-04-29T05:03:35.477Z,985.44
2018-04-29T05:04:35.473Z,985.44
2018-04-29T05:05:35.468Z,985.44
2018-04-29T05:06:35.459Z,985.46
2018-04-29T05:07:35.459Z,985.46
2018-04-29T05:08:35.452Z,985.46
2018-04-29T05:09:35.444Z,985.46
2018-04-29T05:10:35.440Z,985.56
2018-04-29T05:11:35.457Z,985.59
2018-04-29T05:12:35.428Z,985.57
2018-04-29T05:13:35.422Z,985.59
2018-04-29T05:14:35.460Z,985.62
2018-04-29T05:15:35.418Z,985.68
2018-04-29T05:16:35.403Z,985.65
2018-04-29T05:17:35.398Z,985.64
2018-04-29T05:18:35.397Z,985.66
2018-04-29T05:19:35.397Z,985.66
2018-04-29T05:20:35.383Z,985.67
2018-04-29T05:21:35.377Z,985.76
2018-04-29T05:22:35.371Z,985.77
2018-04-29T05:23:35.364Z,985.80
2018-04-29T05:24:35.361Z,985.85
2018-04-29T05:25:35.353Z,985.86
2018-04-29T05:26:35.347Z,985.86
2018-04-29T05:27:35.342Z,985.84
2018-04-29T05:28:35.334Z,985.87
2018-04-29T05:29:35.333Z,985.91
2018-04-29T05:30:35.330Z,985.88
2018-04-29T05:31:35.326Z,985.91
2018-04-29T05:32:35.311Z,985.92
2018-04-29T05:33:35.305Z,985.85
2018-04-29T05:34:35.321Z,985.90
2018-04-29T05:35:35.302Z,985.90
2018-04-29T05:36:35.308Z,985.90
2018-04-29T05:37:35.284Z,985.85
2018-04-29T05:38:35.279Z,985.86
2018-04-29T05:39:35.276Z,985.82
2018-04-29T05:40:35.271Z,985.86
2018-04-29T05:41:35.261Z,985.89
2018-04-29T05:42:35.257Z,985.89
2018-04-29T05:43:35.249Z,985.81
2018-04-29T05:44:35.271Z,985.86
2018-04-29T05:45:35.239Z,985.90
2018-04-29T05:46:35.237Z,985.90
2018-04-29T05:47:35.224Z,985.90
2018-04-29T05:48:35.217Z,985.90
2018-04-29T05:49:35.215Z,985.90
2018-04-29T05:50:35.208Z,985.95
2018-04-29T05:51:35.205Z,985.96
2018-04-29T05:52:35.205Z,986.02
2018-04-29T05:53:35.200Z,986.10
2018-04-29T05:54:35.187Z,986.15
2018-04-29T05:55:35.174Z,986.17
2018-04-29T05:56:35.174Z,986.28
2018-04-29T05:57:35.172Z,986.34
2018-04-29T05:58:35.166Z,986.40
2018-04-29T05:59:35.160Z,986.54
2018-04-29T06:00:35.155Z,986.58
2018-04-29T06:01:35.150Z,986.72
2018-04-29T06:02:35.148Z,986.87
2018-04-29T06:03:35.136Z,986.93
2018-04-29T06:04:35.135Z,986.98
2018-04-29T06:05:35.120Z,987.04
2018-04-29T06:06:35.133Z,987.05
2018-04-29T06:07:35.111Z,987.02
2018-04-29T06:08:35.109Z,987.00
2018-04-29T06:09:35.104Z,986.98
2018-04-29T06:10:35.097Z,986.96
2018-04-29T06:11:35.090Z,987.14
2018-04-29T06:12:35.085Z,987.24
2018-04-29T06:13:35.083Z,987.39
2018-04-29T06:14:35.079Z,987.38
2018-04-29T06:15:35.065Z,987.31
2018-04-29T06:16:35.064Z,987.17
2018-04-29T06:17:35.060Z,987.16
2018-04-29T06:18:35.052Z,987.12
2018-04-29T06:19:35.047Z,987.16
2018-04-29T06:20:35.076Z,987.10
2018-04-29T06:21:35.034Z,987.02
2018-04-29T06:22:35.028Z,987.02
2018-04-29T06:23:35.022Z,986.95
2018-04-29T06:24:35.013Z,986.82
2018-04-29T06:25:35.021Z,986.76
2018-04-29T06:26:35.079Z,986.72
2018-04-29T06:27:35.002Z,986.68
2018-04-29T06:28:34.995Z,986.69
2018-04-29T06:29:34.989Z,986.55
2018-04-29T06:30:34.986Z,986.54
2018-04-29T06:31:34.976Z,986.47
2018-04-29T06:32:34.971Z,986.42
2018-04-29T06:33:34.964Z,986.47
2018-04-29T06:34:34.962Z,986.37
2018-04-29T06:35:34.948Z,986.19
2018-04-29T06:36:34.961Z,985.99
2018-04-29T06:37:34.941Z,985.61
2018-04-29T06:38:34.944Z,985.29
2018-04-29T06:39:34.933Z,985.04
2018-04-29T06:40:34.924Z,984.88
2018-04-29T06:41:34.918Z,984.94
2018-04-29T06:42:34.917Z,984.98
2018-04-29T06:43:34.931Z,985.00
2018-04-29T06:44:34.904Z,985.11
2018-04-29T06:45:34.899Z,985.18
2018-04-29T06:46:34.938Z,985.17
2018-04-29T06:47:34.884Z,985.18
2018-04-29T06:48:34.880Z,985.15
2018-04-29T06:49:34.868Z,985.11
2018-04-29T06:50:34.868Z,985.14
2018-04-29T06:51:34.871Z,985.12
2018-04-29T06:52:34.854Z,985.17
2018-04-29T06:53:34.931Z,985.11
2018-04-29T06:54:34.845Z,985.15
2018-04-29T06:55:34.841Z,985.10
2018-04-29T06:56:34.837Z,985.04
2018-04-29T06:57:34.825Z,985.06
2018-04-29T06:58:34.826Z,985.05
2018-04-29T06:59:34.833Z,985.03
2018-04-29T07:00:34.810Z,985.03
2018-04-29T07:01:34.804Z,985.00
2018-04-29T07:02:34.827Z,985.04
2018-04-29T07:03:34.791Z,985.03
2018-04-29T07:04:34.783Z,985.01
2018-04-29T07:05:34.779Z,984.99
2018-04-29T07:06:34.773Z,985.00
2018-04-29T07:07:34.771Z,985.01
2018-04-29T07:08:34.759Z,985.00
2018-04-29T07:09:34.751Z,985.01
2018-04-29T07:10:34.750Z,984.98
2018-04-29T07:11:34.736Z,984.93
2018-04-29T07:12:34.730Z,984.92
2018-04-29T07:13:34.726Z,984.92
2018-04-29T07:14:34.720Z,984.97
2018-04-29T07:15:34.715Z,984.95
2018-04-29T07:16:34.707Z,985.00
2018-04-29T07:17:34.700Z,984.97
2018-04-29T07:18:34.693Z,985.05
2018-04-29T07:19:34.686Z,984.98
2018-04-29T07:20:34.749Z,984.97
2018-04-29T07:21:34.676Z,984.92
2018-04-29T07:22:34.665Z,984.92
2018-04-29T07:23:34.718Z,984.84
2018-04-29T07:24:34.643Z,984.89
2018-04-29T07:25:34.649Z,984.91
2018-04-29T07:26:34.637Z,984.93
2018-04-29T07:27:34.632Z,985.01
2018-04-29T07:28:34.660Z,985.06
2018-04-29T07:29:34.627Z,985.08
2018-04-29T07:30:34.612Z,985.10
2018-04-29T07:31:34.608Z,985.18
2018-04-29T07:32:34.600Z,985.25
2018-04-29T07:33:34.592Z,985.31
2018-04-29T07:34:34.585Z,985.33
2018-04-29T07:35:34.578Z,985.40
2018-04-29T07:36:34.577Z,985.39
2018-04-29T07:37:34.572Z,985.45
2018-04-29T07:38:34.557Z,985.49
2018-04-29T07:39:34.552Z,985.56
2018-04-29T07:40:34.545Z,985.56
2018-04-29T07:41:34.536Z,985.57
2018-04-29T07:42:34.532Z,985.53
2018-04-29T07:43:34.533Z,985.50
2018-04-29T07:44:34.521Z,985.50
2018-04-29T07:45:34.513Z,985.51
2018-04-29T07:46:34.516Z,985.52
2018-04-29T07:47:34.500Z,985.54
2018-04-29T07:48:34.491Z,985.52
2018-04-29T07:49:34.491Z,985.49
2018-04-29T07:50:34.481Z,985.49
2018-04-29T07:51:34.476Z,985.45
2018-04-29T07:52:34.505Z,985.46
2018-04-29T07:53:34.460Z,985.39
2018-04-29T07:54:34.455Z,985.34
2018-04-29T07:55:34.445Z,985.31
2018-04-29T07:56:34.441Z,985.29
2018-04-29T07:57:34.432Z,985.29
2018-04-29T07:58:34.434Z,985.26
2018-04-29T07:59:34.419Z,985.24
2018-04-29T08:00:34.414Z,985.32
2018-04-29T08:01:34.440Z,985.30
2018-04-29T08:02:34.443Z,985.27
2018-04-29T08:03:34.394Z,985.29
2018-04-29T08:04:34.388Z,985.36
2018-04-29T08:05:34.388Z,985.33
2018-04-29T08:06:34.376Z,985.29
2018-04-29T08:07:34.368Z,985.29
2018-04-29T08:08:34.362Z,985.28
2018-04-29T08:09:34.357Z,985.26
2018-04-29T08:10:34.350Z,985.28
2018-04-29T08:11:34.344Z,985.28
2018-04-29T08:12:34.339Z,985.33
2018-04-29T08:13:34.339Z,985.28
2018-04-29T08:14:34.325Z,985.31
2018-04-29T08:15:34.422Z,985.28
2018-04-29T08:16:34.308Z,985.25
2018-04-29T08:17:34.306Z,985.31
2018-04-29T08:18:34.300Z,985.27
2018-04-29T08:19:34.290Z,985.18
2018-04-29T08:20:34.287Z,985.20
2018-04-29T08:21:34.280Z,985.19
2018-04-29T08:22:34.283Z,985.17
2018-04-29T08:23:34.267Z,985.20
2018-04-29T08:24:34.257Z,985.22
2018-04-29T08:25:34.260Z,985.26
2018-04-29T08:26:34.251Z,985.24
2018-04-29T08:27:34.246Z,985.24
2018-04-29T08:28:34.249Z,985.23
2018-04-29T08:29:34.227Z,985.22
2018-04-29T08:30:34.223Z,985.19
2018-04-29T08:31:34.215Z,985.18
2018-04-29T08:32:34.210Z,985.21
2018-04-29T08:33:34.205Z,985.20
2018-04-29T08:34:34.197Z,985.32
2018-04-29T08:35:34.190Z,985.27
2018-04-29T08:36:34.185Z,985.38
2018-04-29T08:37:34.182Z,985.39
2018-04-29T08:38:34.174Z,985.45
2018-04-29T08:39:34.164Z,985.48
2018-04-29T08:40:34.162Z,985.52
2018-04-29T08:41:34.152Z,985.59
2018-04-29T08:42:34.145Z,985.64
2018-04-29T08:43:34.147Z,985.65
2018-04-29T08:44:34.135Z,985.68
2018-04-29T08:45:34.127Z,985.70
2018-04-29T08:46:34.121Z,985.68
2018-04-29T08:47:34.114Z,985.72
2018-04-29T08:48:34.131Z,985.69
2018-04-29T08:49:34.101Z,985.62
2018-04-29T08:50:34.096Z,985.65
2018-04-29T08:51:34.092Z,985.65
2018-04-29T08:52:34.089Z,985.64
2018-04-29T08:53:34.077Z,985.63
2018-04-29T08:54:34.069Z,985.65
2018-04-29T08:55:34.064Z,985.62
2018-04-29T08:56:34.058Z,985.62
2018-04-29T08:57:34.052Z,985.61
2018-04-29T08:58:34.049Z,985.58
2018-04-29T08:59:34.038Z,985.63
2018-04-29T09:00:34.031Z,985.59
2018-04-29T09:01:34.029Z,985.55
2018-04-29T09:02:34.020Z,985.57
2018-04-29T09:03:34.021Z,985.56
2018-04-29T09:04:34.006Z,985.52
2018-04-29T09:05:33.999Z,985.48
2018-04-29T09:06:33.993Z,985.42
2018-04-29T09:07:33.990Z,985.39
2018-04-29T09:08:33.981Z,985.41
2018-04-29T09:09:33.969Z,985.42
2018-04-29T09:10:33.969Z,985.35
2018-04-29T09:11:33.981Z,985.40
2018-04-29T09:12:33.957Z,985.42
2018-04-29T09:13:33.951Z,985.40
2018-04-29T09:14:33.953Z,985.34
2018-04-29T09:15:33.938Z,985.40
2018-04-29T09:16:33.930Z,985.36
2018-04-29T09:17:33.989Z,985.33
2018-04-29T09:18:33.921Z,985.37
2018-04-29T09:19:33.943Z,985.35
2018-04-29T09:20:33.907Z,985.35
2018-04-29T09:21:33.902Z,985.34
2018-04-29T09:22:33.899Z,985.35
2018-04-29T09:23:33.888Z,985.35
2018-04-29T09:24:33.882Z,985.37
2018-04-29T09:25:33.875Z,985.37
2018-04-29T09:26:33.870Z,985.34
2018-04-29T09:27:33.863Z,985.36
2018-04-29T09:28:33.858Z,985.36
2018-04-29T09:29:33.857Z,985.33
2018-04-29T09:30:33.850Z,985.34
2018-04-29T09:31:33.840Z,985.35
2018-04-29T09:32:33.834Z,985.33
2018-04-29T09:33:33.829Z,985.32
2018-04-29T09:34:33.824Z,985.31
2018-04-29T09:35:33.820Z,985.27
2018-04-29T09:36:33.815Z,985.28
2018-04-29T09:37:33.806Z,985.28
2018-04-29T09:38:33.801Z,985.29
2018-04-29T09:39:33.798Z,985.27
2018-04-29T09:40:33.785Z,985.23
2018-04-29T09:41:33.780Z,985.21
2018-04-29T09:42:33.773Z,985.22
2018-04-29T09:43:33.880Z,985.21
2018-04-29T09:44:33.762Z,985.19
2018-04-29T09:45:33.758Z,985.21
2018-04-29T09:46:33.750Z,985.19
2018-04-29T09:47:33.742Z,985.15
2018-04-29T09:48:33.765Z,985.16
2018-04-29T09:49:33.734Z,985.08
2018-04-29T09:50:33.726Z,985.13
2018-04-29T09:51:33.720Z,985.16
2018-04-29T09:52:33.714Z,985.13
2018-04-29T09:53:33.715Z,985.11
2018-04-29T09:54:33.722Z,985.06
2018-04-29T09:55:33.710Z,984.99
2018-04-29T09:56:33.693Z,985.01
2018-04-29T09:57:33.685Z,984.96
2018-04-29T09:58:33.681Z,985.00
2018-04-29T09:59:33.671Z,984.86
2018-04-29T10:00:33.668Z,984.87
2018-04-29T10:01:33.662Z,984.83
2018-04-29T10:02:33.665Z,984.73
2018-04-29T10:03:33.650Z,984.75
2018-04-29T10:04:33.653Z,984.71
2018-04-29T10:05:33.640Z,984.72
2018-04-29T10:06:33.635Z,984.67
2018-04-29T10:07:33.629Z,984.68
2018-04-29T10:08:33.621Z,984.67
2018-04-29T10:09:33.640Z,984.60
2018-04-29T10:10:33.611Z,984.61
2018-04-29T10:11:33.605Z,984.53
2018-04-29T10:12:33.599Z,984.46
2018-04-29T10:13:33.593Z,984.44
2018-04-29T10:14:33.589Z,984.39
2018-04-29T10:15:33.581Z,984.40
2018-04-29T10:16:33.578Z,984.39
2018-04-29T10:17:33.575Z,984.35
2018-04-29T10:18:33.565Z,984.32
2018-04-29T10:19:33.559Z,984.33
2018-04-29T10:20:33.553Z,984.32
2018-04-29T10:21:33.550Z,984.32
2018-04-29T10:22:33.541Z,984.28
2018-04-29T10:23:33.539Z,984.29
2018-04-29T10:24:33.537Z,984.28
2018-04-29T10:25:33.530Z,984.31
2018-04-29T10:26:33.528Z,984.31
2018-04-29T10:27:33.516Z,984.27
2018-04-29T10:28:33.513Z,984.26
2018-04-29T10:29:33.506Z,984.21
2018-04-29T10:30:33.500Z,984.21
2018-04-29T10:31:33.508Z,984.15
2018-04-29T10:32:33.493Z,984.17
2018-04-29T10:33:33.483Z,984.16
2018-04-29T10:34:33.478Z,984.25
2018-04-29T10:35:33.473Z,984.18
2018-04-29T10:36:33.470Z,984.26
2018-04-29T10:37:33.464Z,984.18
2018-04-29T10:38:33.457Z,984.17
2018-04-29T10:39:33.452Z,984.14
2018-04-29T10:40:33.445Z,984.12
2018-04-29T10:41:33.439Z,984.08
2018-04-29T10:42:33.444Z,984.06
2018-04-29T10:43:33.435Z,984.02
2018-04-29T10:44:33.435Z,984.00
2018-04-29T10:45:33.426Z,983.97
2018-04-29T10:46:33.415Z,983.92
2018-04-29T10:47:33.408Z,983.98
2018-04-29T10:48:33.401Z,983.97
2018-04-29T10:49:33.399Z,983.93
2018-04-29T10:50:33.393Z,983.89
2018-04-29T10:51:33.385Z,983.92
2018-04-29T10:52:33.482Z,983.91
2018-04-29T10:53:33.377Z,983.91
2018-04-29T10:54:33.374Z,983.89
2018-04-29T10:55:33.365Z,983.87
2018-04-29T10:56:33.393Z,983.89
2018-04-29T10:57:33.355Z,983.85
2018-04-29T10:58:33.347Z,983.81
2018-04-29T10:59:33.343Z,983.77
2018-04-29T11:00:33.338Z,983.77
2018-04-29T11:01:33.337Z,983.78
2018-04-29T11:02:33.331Z,983.74
2018-04-29T11:03:33.325Z,983.74
2018-04-29T11:04:33.319Z,983.72
2018-04-29T11:05:33.312Z,983.62
2018-04-29T11:06:33.309Z,983.57
2018-04-29T11:07:33.301Z,983.59
2018-04-29T11:08:33.300Z,983.59
2018-04-29T11:09:33.293Z,983.54
2018-04-29T11:10:33.290Z,983.51
2018-04-29T11:11:33.281Z,983.44
2018-04-29T11:12:33.280Z,983.39
2018-04-29T11:13:33.270Z,983.43
2018-04-29T11:14:33.267Z,983.44
2018-04-29T11:15:33.262Z,983.42
2018-04-29T11:16:33.255Z,983.36
2018-04-29T11:17:33.249Z,983.29
2018-04-29T11:18:33.245Z,983.27
2018-04-29T11:19:33.246Z,983.25
2018-04-29T11:20:33.239Z,983.28
2018-04-29T11:21:33.229Z,983.20
2018-04-29T11:22:33.224Z,983.24
2018-04-29T11:23:33.222Z,983.18
2018-04-29T11:24:33.217Z,983.14
2018-04-29T11:25:33.298Z,983.13
2018-04-29T11:26:33.202Z,983.14
2018-04-29T11:27:33.198Z,983.12
2018-04-29T11:28:33.230Z,983.09
2018-04-29T11:29:33.190Z,983.10
2018-04-29T11:30:33.188Z,983.10
2018-04-29T11:31:33.176Z,983.06
2018-04-29T11:32:33.171Z,983.06
2018-04-29T11:33:33.168Z,983.07
2018-04-29T11:34:33.161Z,983.04
2018-04-29T11:35:33.153Z,983.04
2018-04-29T11:36:33.152Z,983.04
2018-04-29T11:37:33.148Z,983.02
2018-04-29T11:38:33.154Z,983.10
2018-04-29T11:39:33.133Z,983.05
2018-04-29T11:40:33.144Z,983.09
2018-04-29T11:41:33.124Z,983.02
2018-04-29T11:42:33.124Z,983.04
2018-04-29T11:43:33.115Z,983.03
2018-04-29T11:44:33.107Z,983.03
2018-04-29T11:45:33.107Z,983.03
2018-04-29T11:46:33.098Z,982.99
2018-04-29T11:47:33.090Z,982.94
2018-04-29T11:48:33.091Z,982.94
2018-04-29T11:49:33.084Z,982.91
2018-04-29T11:50:33.076Z,982.95
2018-04-29T11:51:33.075Z,982.89
2018-04-29T11:52:33.064Z,982.85
2018-04-29T11:53:33.059Z,982.83
2018-04-29T11:54:33.056Z,982.86
2018-04-29T11:55:33.052Z,982.81
2018-04-29T11:56:33.055Z,982.83
2018-04-29T11:57:33.038Z,982.89
2018-04-29T11:58:33.034Z,982.85
2018-04-29T11:59:33.034Z,982.84
2018-04-29T12:00:33.022Z,982.89
2018-04-29T12:01:33.016Z,982.88
2018-04-29T12:02:33.071Z,982.88
2018-04-29T12:03:33.006Z,982.90
2018-04-29T12:04:33.003Z,982.84
2018-04-29T12:05:33.001Z,982.84
2018-04-29T12:06:32.994Z,982.90
2018-04-29T12:07:32.986Z,982.86
2018-04-29T12:08:32.978Z,982.81
2018-04-29T12:09:32.974Z,982.82
2018-04-29T12:10:32.969Z,982.74
2018-04-29T12:11:32.962Z,982.72
2018-04-29T12:12:32.960Z,982.70
2018-04-29T12:13:32.958Z,982.68
2018-04-29T12:14:32.946Z,982.67
2018-04-29T12:15:32.945Z,982.69
2018-04-29T12:16:33.029Z,982.61
2018-04-29T12:17:32.932Z,982.58
2018-04-29T12:18:32.926Z,982.57
2018-04-29T12:19:32.925Z,982.61
2018-04-29T12:20:32.916Z,982.65
2018-04-29T12:21:32.911Z,982.58
2018-04-29T12:22:32.911Z,982.62
2018-04-29T12:23:32.903Z,982.60
2018-04-29T12:24:32.936Z,982.58
2018-04-29T12:25:32.891Z,982.55
2018-04-29T12:26:32.888Z,982.55
2018-04-29T12:27:32.879Z,982.58
2018-04-29T12:28:32.875Z,982.51